Terminal Aerodrome Forecast
Issued by NWS Louisville, KY

Home | Current Version | Previous Version | Text Only | Print | Product List | Glossary On
Versions: 1 2 3 4 5 6 7 8 9 10 11 12 13 14 15 16 17 18 19 20
000
FTUS43 KLMK 231742
TAFSDF
TAF
KSDF 231742Z 2318/2424 20006KT 6SM -SHRA BR BKN015
     FM231900 25011KT P6SM VCSH BKN015
     FM232300 29007KT P6SM VCSH BKN035
     FM240500 34004KT P6SM VCSH BKN018
     FM240900 02004KT 5SM -SHRA OVC009=

USA.gov is the U.S. government's official web portal to all federal, state and local government web resources and services.